Time;durP1;ratioP1;P1;durP2;ratioP2;P2;SDS_P1;SDS_P2;PMS_P1;PMS_P2;Temp;Humidity;BMP_temperature;BMP_pressure;BME280_temperature;BME280_humidity;BME280_pressure;Samples;Min_cycle;Max_cycle;Signal;HPM_P1;HPM_P2
2023/12/28 00:00:10;;;;;;;2.40;1.50;;;;;;;9.36;100.00;100863.94;5130490;27;20047;-36
2023/12/28 00:02:36;;;;;;;2.70;1.40;;;;;;;9.36;100.00;100869.34;5131340;27;20055;-36
2023/12/28 00:05:01;;;;;;;3.33;1.50;;;;;;;9.33;100.00;100866.28;5130976;27;20034;-36
2023/12/28 00:07:27;;;;;;;2.77;1.50;;;;;;;9.14;100.00;100850.03;5123504;27;20413;-36
2023/12/28 00:09:52;;;;;;;2.15;1.40;;;;;;;9.25;100.00;100873.59;5117209;28;20110;-36
2023/12/28 00:12:18;;;;;;;1.27;1.10;;;;;;;9.18;100.00;100853.13;5116885;28;20142;-36
2023/12/28 00:14:43;;;;;;;2.73;1.27;;;;;;;9.24;100.00;100876.50;5116740;28;20051;-36
2023/12/28 00:17:08;;;;;;;2.53;1.70;;;;;;;9.13;100.00;100863.75;5116414;28;20369;-36
2023/12/28 00:19:34;;;;;;;2.73;1.77;;;;;;;9.18;100.00;100882.81;5116749;28;20035;-36
2023/12/28 00:21:59;;;;;;;3.27;1.40;;;;;;;9.19;100.00;100887.16;5117323;28;20550;-36
2023/12/28 00:24:24;;;;;;;2.10;1.40;;;;;;;9.16;100.00;100876.78;5116682;27;20372;-36
2023/12/28 00:26:50;;;;;;;2.33;1.40;;;;;;;9.15;100.00;100883.22;5117467;28;20448;-35
2023/12/28 00:29:15;;;;;;;2.20;1.63;;;;;;;9.11;100.00;100877.44;5116557;28;20032;-35
2023/12/28 00:31:40;;;;;;;2.93;1.33;;;;;;;9.12;100.00;100889.06;5117316;28;20268;-36
2023/12/28 00:34:06;;;;;;;2.37;1.60;;;;;;;9.06;100.00;100879.97;5116431;28;20023;-36
2023/12/28 00:36:31;;;;;;;2.07;1.40;;;;;;;9.09;100.00;100898.44;5116423;28;20127;-36
2023/12/28 00:38:57;;;;;;;2.77;1.50;;;;;;;9.09;100.00;100898.44;5116094;28;20467;-36
2023/12/28 00:41:22;;;;;;;2.67;1.58;;;;;;;9.09;100.00;100905.69;5116440;28;20333;-36
2023/12/28 00:43:47;;;;;;;3.10;1.67;;;;;;;9.04;100.00;100903.66;5116036;28;20360;-36
2023/12/28 00:46:13;;;;;;;2.30;1.43;;;;;;;9.03;100.00;100902.84;5116243;28;20333;-35
2023/12/28 00:48:38;;;;;;;1.83;1.57;;;;;;;8.95;100.00;100894.19;5115977;28;20035;-36
2023/12/28 00:51:03;;;;;;;3.47;1.60;;;;;;;8.97;100.00;100897.47;5116180;27;20050;-36
2023/12/28 00:53:29;;;;;;;2.13;1.45;;;;;;;8.98;100.00;100896.47;5116158;28;20088;-36
2023/12/28 00:55:54;;;;;;;2.37;1.60;;;;;;;9.03;100.00;100910.94;5116048;28;20156;-36
2023/12/28 00:58:19;;;;;;;3.23;1.63;;;;;;;9.02;100.00;100911.13;5115964;28;20031;-36
2023/12/28 01:00:45;;;;;;;1.80;1.37;;;;;;;9.08;100.00;100920.22;5115738;28;20024;-36
2023/12/28 01:03:10;;;;;;;5.60;1.80;;;;;;;9.09;100.00;100916.50;5115924;28;20055;-36
2023/12/28 01:05:35;;;;;;;3.10;1.60;;;;;;;9.08;100.00;100904.88;5115881;28;20034;-36
2023/12/28 01:08:01;;;;;;;2.55;1.63;;;;;;;9.11;100.00;100915.22;5115800;28;20070;-36
2023/12/28 01:10:27;;;;;;;2.78;1.70;;;;;;;9.10;100.00;100913.56;5116042;28;20095;-36
2023/12/28 01:12:52;;;;;;;2.45;1.88;;;;;;;9.10;100.00;100926.22;5116004;28;20037;-36
2023/12/28 01:15:20;;;;;;;3.10;1.80;;;;;;;9.10;100.00;100918.97;5115580;28;20027;-36
2023/12/28 01:17:45;;;;;;;2.42;1.38;;;;;;;9.05;100.00;100912.56;5116171;28;20035;-36
2023/12/28 01:20:11;;;;;;;2.80;1.70;;;;;;;9.16;100.00;100925.34;5114644;27;20443;-36
2023/12/28 01:22:36;;;;;;;3.65;1.75;;;;;;;9.17;100.00;100929.69;5116054;28;20246;-36
2023/12/28 01:25:01;;;;;;;2.43;1.53;;;;;;;9.22;100.00;100924.47;5115168;28;20479;-36
2023/12/28 01:27:27;;;;;;;2.87;1.63;;;;;;;9.22;100.00;100928.00;5115803;28;20027;-36
2023/12/28 01:29:53;;;;;;;3.38;1.85;;;;;;;9.19;100.00;100920.34;5115593;28;20273;-35
2023/12/28 01:32:18;;;;;;;2.63;1.60;;;;;;;9.24;100.00;100935.88;5115407;27;20031;-36
2023/12/28 01:34:44;;;;;;;2.80;1.60;;;;;;;9.12;100.00;100937.63;5115299;28;20030;-36
2023/12/28 01:37:10;;;;;;;4.18;1.80;;;;;;;9.12;100.00;100937.63;5115509;28;20383;-36
2023/12/28 01:39:35;;;;;;;2.92;1.77;;;;;;;9.15;100.00;100929.91;5115098;28;20019;-36
2023/12/28 01:42:01;;;;;;;2.75;1.63;;;;;;;9.19;100.00;100943.81;5115453;28;20024;-36
2023/12/28 01:44:26;;;;;;;2.43;1.60;;;;;;;9.08;100.00;100934.56;5115414;28;20028;-36
2023/12/28 01:46:52;;;;;;;2.72;1.65;;;;;;;9.08;100.00;100928.31;5115582;28;20481;-35
2023/12/28 01:49:17;;;;;;;4.78;1.83;;;;;;;9.10;100.00;100934.31;5114661;28;20102;-35
2023/12/28 01:51:45;;;;;;;3.80;1.80;;;;;;;9.13;100.00;100944.69;5115007;28;20024;-35
2023/12/28 01:54:11;;;;;;;3.20;1.50;;;;;;;9.15;100.00;100937.19;5115134;28;20353;-36
2023/12/28 01:56:37;;;;;;;2.22;1.45;;;;;;;9.15;100.00;100946.09;5115623;28;20090;-35
2023/12/28 01:59:02;;;;;;;3.65;1.58;;;;;;;9.08;100.00;100947.19;5114564;28;20028;-36
2023/12/28 02:01:27;;;;;;;4.40;2.13;;;;;;;9.10;100.00;100942.41;5115174;28;20033;-36
2023/12/28 02:03:55;;;;;;;4.18;1.85;;;;;;;9.15;100.00;100964.16;5115249;28;20061;-35
2023/12/28 02:06:23;;;;;;;2.90;1.38;;;;;;;9.16;100.00;100955.03;5114642;28;20065;-36
2023/12/28 02:08:48;;;;;;;4.82;1.73;;;;;;;9.07;100.00;100937.44;5114627;28;20081;-36
2023/12/28 02:11:14;;;;;;;3.43;1.80;;;;;;;9.13;100.00;100944.69;5114916;27;20459;-36
2023/12/28 02:13:39;;;;;;;4.32;1.50;;;;;;;9.09;100.00;100952.38;5114960;28;20297;-36
2023/12/28 02:16:41;;;;;;;2.90;1.45;;;;;;;9.08;100.00;100957.97;5114979;28;20035;-36
2023/12/28 02:19:31;;;;;;;3.00;1.38;;;;;;;9.06;100.00;100954.69;5111686;28;20043;-36
2023/12/28 02:21:58;;;;;;;5.03;1.58;;;;;;;9.04;100.00;100946.81;5114408;28;20121;-36
2023/12/28 02:24:24;;;;;;;5.00;1.50;;;;;;;9.05;100.00;100953.03;5114343;28;20027;-36
2023/12/28 02:26:49;;;;;;;3.13;1.50;;;;;;;9.04;100.00;100946.81;5114924;28;20091;-36
2023/12/28 02:29:14;;;;;;;3.30;1.40;;;;;;;9.07;100.00;100937.44;5114372;28;20023;-36
2023/12/28 02:31:49;;;;;;;4.07;1.80;;;;;;;8.97;100.00;100927.97;5114619;28;20031;-35
2023/12/28 02:34:30;;;;;;;3.30;1.70;;;;;;;9.03;100.00;100937.91;5114550;28;20671;-36
2023/12/28 02:36:57;;;;;;;3.90;1.70;;;;;;;9.06;100.00;100939.31;5114952;28;20104;-36
2023/12/28 02:39:23;;;;;;;4.75;1.60;;;;;;;9.05;100.00;100936.84;5114157;28;20023;-36
2023/12/28 02:41:49;;;;;;;5.43;1.73;;;;;;;8.96;100.00;100920.94;5114993;28;20077;-36
2023/12/28 02:44:14;;;;;;;2.17;1.15;;;;;;;9.02;100.00;100936.22;5114117;28;20032;-36
2023/12/28 02:46:40;;;;;;;3.80;1.73;;;;;;;9.06;100.00;100935.81;5114114;28;20058;-36
2023/12/28 02:49:05;;;;;;;4.07;1.73;;;;;;;9.03;100.00;100935.22;5114044;28;20028;-36
2023/12/28 02:51:30;;;;;;;4.57;1.50;;;;;;;9.01;100.00;100929.19;5113623;28;20035;-36
2023/12/28 02:53:56;;;;;;;3.43;1.40;;;;;;;8.97;100.00;100933.34;5114335;28;20077;-36
2023/12/28 02:56:21;;;;;;;4.20;1.80;;;;;;;9.05;100.00;100934.16;5113849;28;20051;-36
2023/12/28 02:58:46;;;;;;;4.50;1.67;;;;;;;9.05;100.00;100931.47;5113964;28;20114;-36
2023/12/28 03:01:12;;;;;;;3.07;1.53;;;;;;;9.05;100.00;100916.09;5114551;28;20250;-36
2023/12/28 03:03:37;;;;;;;3.65;1.48;;;;;;;9.10;100.00;100918.13;5114432;28;20092;-36
2023/12/28 03:06:03;;;;;;;3.97;1.77;;;;;;;9.11;100.00;100927.88;5114187;28;20486;-36
2023/12/28 03:08:28;;;;;;;4.18;1.38;;;;;;;9.11;100.00;100925.19;5113858;28;20133;-36
2023/12/28 03:10:55;;;;;;;3.63;1.47;;;;;;;9.09;100.00;100921.88;5113902;28;20027;-36
2023/12/28 03:13:20;;;;;;;3.95;1.40;;;;;;;9.10;100.00;100928.94;5113722;28;20027;-36
2023/12/28 03:15:45;;;;;;;4.77;1.50;;;;;;;9.12;100.00;100924.94;5114640;28;20032;-36
2023/12/28 03:18:11;;;;;;;2.77;1.30;;;;;;;9.10;100.00;100923.53;5113392;28;20352;-36
2023/12/28 03:20:36;;;;;;;5.00;1.90;;;;;;;9.06;100.00;100912.34;5113712;28;20055;-36
2023/12/28 03:23:01;;;;;;;4.80;1.60;;;;;;;9.14;100.00;100935.53;5113696;28;20027;-36
2023/12/28 03:25:27;;;;;;;3.93;1.60;;;;;;;9.06;100.00;100931.22;5114191;28;20035;-36
2023/12/28 03:27:54;;;;;;;3.22;1.40;;;;;;;9.21;100.00;100952.50;5114175;28;20078;-36
2023/12/28 03:30:20;;;;;;;4.13;1.40;;;;;;;9.19;100.00;100949.19;5113481;28;20437;-36
2023/12/28 03:32:45;;;;;;;3.35;1.35;;;;;;;9.21;100.00;100955.19;5113919;28;20028;-36
2023/12/28 03:35:10;;;;;;;3.83;1.60;;;;;;;9.26;100.00;100955.34;5113592;28;20027;-36
2023/12/28 03:37:36;;;;;;;5.97;1.97;;;;;;;9.25;100.00;100932.94;5114236;28;20031;-36
2023/12/28 03:40:01;;;;;;;4.27;1.60;;;;;;;9.35;100.00;100940.56;5113541;28;20032;-36
2023/12/28 03:42:26;;;;;;;6.55;2.00;;;;;;;9.41;100.00;100938.84;5115234;28;20027;-36
2023/12/28 03:44:52;;;;;;;5.23;1.50;;;;;;;9.40;100.00;100923.69;5117659;28;20023;-36
2023/12/28 03:47:17;;;;;;;4.57;1.63;;;;;;;9.39;100.00;100928.28;5118280;28;20106;-36
2023/12/28 03:49:42;;;;;;;7.07;1.63;;;;;;;9.43;100.00;100923.28;5117339;28;20296;-36
2023/12/28 03:52:08;;;;;;;5.07;1.50;;;;;;;9.45;100.00;100924.69;5117968;28;20034;-37
2023/12/28 03:54:33;;;;;;;4.13;1.57;;;;;;;9.44;100.00;100904.16;5117256;28;20031;-37
2023/12/28 03:56:58;;;;;;;3.10;1.30;;;;;;;9.46;100.00;100917.41;5117675;28;20134;-36
2023/12/28 03:59:24;;;;;;;5.13;1.60;;;;;;;9.45;100.00;100911.19;5116820;28;20034;-37
2023/12/28 04:01:49;;;;;;;8.20;1.67;;;;;;;9.49;100.00;100911.56;5117485;28;20024;-40
2023/12/28 04:04:14;;;;;;;7.23;2.40;;;;;;;9.52;100.00;100917.38;5116846;27;20047;-43
2023/12/28 04:06:42;;;;;;;4.97;1.70;;;;;;;9.52;100.00;100933.56;5116759;28;20473;-36
2023/12/28 04:09:07;;;;;;;5.32;1.63;;;;;;;9.56;100.00;100923.13;5117762;28;20028;-36
2023/12/28 04:11:32;;;;;;;4.43;1.50;;;;;;;9.54;100.00;100926.06;5117547;28;20375;-36
2023/12/28 04:13:58;;;;;;;3.80;1.60;;;;;;;9.54;100.00;100928.75;5116873;28;20055;-36
2023/12/28 04:16:23;;;;;;;7.23;1.97;;;;;;;9.51;100.00;100926.50;5116791;28;20102;-36
2023/12/28 04:18:49;;;;;;;5.83;1.60;;;;;;;9.50;100.00;100926.72;5116788;28;20265;-36
2023/12/28 04:21:14;;;;;;;4.03;1.50;;;;;;;9.56;100.00;100925.81;5116744;28;20032;-36
2023/12/28 04:23:41;;;;;;;4.93;1.53;;;;;;;9.63;100.00;100944.69;5116680;28;20270;-36
2023/12/28 04:26:07;;;;;;;4.53;1.40;;;;;;;9.65;100.00;100924.50;5116944;28;20027;-36
2023/12/28 04:28:34;;;;;;;5.90;1.77;;;;;;;9.64;100.00;100930.94;5116270;28;20116;-36
2023/12/28 04:31:02;;;;;;;5.95;1.75;;;;;;;9.68;100.00;100937.56;5117091;28;20035;-36
2023/12/28 04:33:28;;;;;;;5.63;1.90;;;;;;;9.64;100.00;100924.72;5116486;28;20030;-36
2023/12/28 04:35:53;;;;;;;7.57;2.43;;;;;;;9.57;100.00;100919.41;5116725;28;20378;-36
2023/12/28 04:38:18;;;;;;;4.37;1.53;;;;;;;9.55;100.00;100927.69;5116349;28;20040;-36
2023/12/28 04:40:44;;;;;;;5.77;1.80;;;;;;;9.68;100.00;100931.34;5116446;28;20111;-36
2023/12/28 04:43:09;;;;;;;8.10;1.67;;;;;;;9.66;100.00;100949.63;5115994;28;20333;-36
2023/12/28 04:45:34;;;;;;;5.68;1.88;;;;;;;9.65;100.00;100937.16;5116874;28;20027;-36
2023/12/28 04:48:00;;;;;;;4.40;1.73;;;;;;;9.72;100.00;100938.78;5115903;28;20024;-36
2023/12/28 04:50:25;;;;;;;7.77;2.37;;;;;;;9.73;100.00;100940.41;5116795;27;20262;-36
2023/12/28 04:52:50;;;;;;;5.63;1.57;;;;;;;9.68;100.00;100917.84;5115757;28;20108;-36
2023/12/28 04:55:16;;;;;;;5.97;1.47;;;;;;;9.77;100.00;100946.22;5115988;28;20194;-36
2023/12/28 04:57:44;;;;;;;5.00;1.57;;;;;;;9.76;100.00;100941.81;5116148;28;20027;-36
2023/12/28 05:00:10;;;;;;;6.90;2.00;;;;;;;9.69;100.00;100919.47;5115698;28;20376;-36
2023/12/28 05:02:35;;;;;;;5.78;2.08;;;;;;;9.68;100.00;100920.53;5116542;28;20065;-36
2023/12/28 05:05:00;;;;;;;9.43;2.10;;;;;;;9.80;100.00;100940.34;5116422;28;20099;-36
2023/12/28 05:07:26;;;;;;;5.57;1.67;;;;;;;9.85;100.00;100940.50;5116132;28;20020;-36
2023/12/28 05:09:51;;;;;;;9.00;2.43;;;;;;;9.87;100.00;100949.22;5115559;28;20527;-36
2023/12/28 05:12:17;;;;;;;8.40;1.80;;;;;;;9.88;100.00;100948.16;5115805;28;20080;-36
2023/12/28 05:14:42;;;;;;;5.93;1.63;;;;;;;9.87;100.00;100938.41;5115787;28;20054;-36
2023/12/28 05:17:07;;;;;;;6.90;2.00;;;;;;;9.89;100.00;100947.09;5115874;28;20035;-36
2023/12/28 05:19:33;;;;;;;6.73;1.93;;;;;;;9.91;100.00;100942.31;5116391;28;20656;-36
2023/12/28 05:22:02;;;;;;;8.97;2.10;;;;;;;9.80;100.00;100940.34;5115517;28;20273;-36
2023/12/28 05:24:28;;;;;;;7.15;2.30;;;;;;;9.85;100.00;100940.50;5115422;28;20032;-36
2023/12/28 05:26:53;;;;;;;6.90;1.87;;;;;;;9.75;100.00;100937.47;5115756;27;20456;-36
2023/12/28 05:29:18;;;;;;;8.43;2.23;;;;;;;9.77;100.00;100951.59;5115177;28;20055;-36
2023/12/28 05:31:44;;;;;;;7.73;2.87;;;;;;;9.71;100.00;100947.06;5116245;28;20363;-36
2023/12/28 05:34:10;;;;;;;9.60;2.60;;;;;;;9.67;100.00;100940.50;5115285;28;20028;-36
2023/12/28 05:36:35;;;;;;;7.70;2.45;;;;;;;9.69;100.00;100959.97;5115769;27;20024;-36
2023/12/28 05:39:01;;;;;;;8.43;2.53;;;;;;;9.69;100.00;100963.50;5115243;28;20366;-36
2023/12/28 05:41:27;;;;;;;5.75;1.70;;;;;;;9.68;100.00;100969.13;5115211;28;20016;-36
2023/12/28 05:43:52;;;;;;;7.13;2.47;;;;;;;9.63;100.00;100953.59;5114816;28;20506;-36
2023/12/28 05:46:18;;;;;;;7.37;2.13;;;;;;;9.69;100.00;100959.97;5115944;27;20024;-36
2023/12/28 05:48:43;;;;;;;6.03;1.87;;;;;;;9.72;100.00;100962.25;5115080;28;20364;-36
2023/12/28 05:51:08;;;;;;;7.00;2.07;;;;;;;9.81;100.00;100947.41;5115146;28;20492;-36
2023/12/28 05:53:34;;;;;;;8.70;2.17;;;;;;;9.82;100.00;100959.88;5114680;28;20027;-36
2023/12/28 05:56:03;;;;;;;8.73;2.00;;;;;;;9.84;100.00;100952.34;5114807;28;20384;-36
2023/12/28 05:58:28;;;;;;;5.45;1.75;;;;;;;9.74;100.00;100939.34;5114503;28;20602;-36
2023/12/28 06:00:54;;;;;;;6.85;1.85;;;;;;;9.76;100.00;100958.03;5114496;28;20057;-36
2023/12/28 06:03:19;;;;;;;15.95;2.85;;;;;;;9.83;100.00;100977.72;5114720;28;20114;-36
2023/12/28 06:05:45;;;;;;;9.50;2.17;;;;;;;9.82;100.00;100969.84;5114540;28;20110;-36
2023/12/28 06:08:11;;;;;;;10.75;2.33;;;;;;;9.85;100.00;100985.59;5114987;28;20031;-36
2023/12/28 06:10:36;;;;;;;10.07;2.08;;;;;;;9.82;100.00;100965.25;5114398;28;20039;-36
2023/12/28 06:13:01;;;;;;;10.30;2.00;;;;;;;9.82;100.00;100969.84;5114345;28;20028;-36
2023/12/28 06:15:27;;;;;;;8.77;2.20;;;;;;;9.90;100.00;100980.34;5114561;28;20281;-36
2023/12/28 06:17:52;;;;;;;8.03;2.83;;;;;;;9.91;100.00;100969.34;5114623;28;20020;-36
2023/12/28 06:20:19;;;;;;;9.85;2.53;;;;;;;9.92;100.00;100978.25;5114216;28;20076;-36
2023/12/28 06:22:48;;;;;;;11.18;3.00;;;;;;;9.89;100.00;100971.41;5115023;28;20020;-36
2023/12/28 06:25:13;;;;;;;7.30;2.42;;;;;;;9.86;100.00;100960.22;5114061;28;20059;-36
2023/12/28 06:27:38;;;;;;;6.67;1.97;;;;;;;9.92;100.00;100984.47;5114985;28;20445;-36
2023/12/28 06:30:04;;;;;;;10.23;2.53;;;;;;;9.86;100.00;100971.03;5114370;28;20067;-36
2023/12/28 06:32:30;;;;;;;10.18;2.83;;;;;;;9.93;100.00;100994.25;5114287;28;20293;-36
2023/12/28 06:34:56;;;;;;;6.63;2.10;;;;;;;9.86;100.00;100979.97;5114091;28;20084;-36
2023/12/28 06:37:21;;;;;;;8.65;2.20;;;;;;;9.85;100.00;100983.72;5113898;28;20055;-36
2023/12/28 06:39:46;;;;;;;7.17;2.10;;;;;;;9.87;100.00;100961.91;5113889;28;20031;-36
2023/12/28 06:42:12;;;;;;;7.87;2.47;;;;;;;9.93;100.00;100988.00;5114210;28;20069;-36
2023/12/28 06:44:37;;;;;;;7.07;2.03;;;;;;;9.97;100.00;100986.53;5113786;28;20467;-36
2023/12/28 06:47:02;;;;;;;7.90;2.27;;;;;;;9.91;100.00;100992.81;5113847;28;20528;-36
2023/12/28 06:49:28;;;;;;;12.18;3.30;;;;;;;9.86;100.00;100985.38;5113449;28;20028;-36
2023/12/28 06:51:53;;;;;;;8.90;2.37;;;;;;;9.84;100.00;100984.75;5114279;28;20032;-36
2023/12/28 06:54:18;;;;;;;10.93;2.80;;;;;;;9.83;100.00;100991.22;5113474;28;20107;-36
2023/12/28 06:56:44;;;;;;;10.23;2.60;;;;;;;9.85;100.00;100986.41;5113951;28;20089;-36
2023/12/28 06:59:12;;;;;;;10.87;2.50;;;;;;;9.88;100.00;100991.38;5113584;28;20473;-36
2023/12/28 07:01:41;;;;;;;8.38;2.72;;;;;;;9.85;100.00;101001.78;5113623;28;20265;-36
2023/12/28 07:04:07;;;;;;;9.68;2.70;;;;;;;9.83;100.00;101004.72;5113545;28;20024;-36
2023/12/28 07:06:32;;;;;;;9.57;2.42;;;;;;;9.81;100.00;100998.72;5113258;28;20400;-37
2023/12/28 07:08:57;;;;;;;8.50;2.50;;;;;;;9.84;100.00;101002.84;5114308;28;20024;-36
2023/12/28 07:11:23;;;;;;;9.67;2.73;;;;;;;9.87;100.00;101005.94;5114089;28;20639;-36
2023/12/28 07:13:48;;;;;;;13.80;2.83;;;;;;;9.83;100.00;101002.03;5113698;28;20035;-36
2023/12/28 07:16:14;;;;;;;12.38;2.67;;;;;;;9.90;100.00;101023.56;5113691;28;20610;-36
2023/12/28 07:18:39;;;;;;;12.50;3.35;;;;;;;9.91;100.00;101017.13;5116944;28;20460;-36
2023/12/28 07:21:06;;;;;;;7.23;2.50;;;;;;;9.82;100.00;101015.75;5117672;28;20032;-36
2023/12/28 07:23:31;;;;;;;10.10;2.45;;;;;;;9.88;100.00;101013.00;5117466;28;20629;-36
2023/12/28 07:25:57;;;;;;;11.55;2.67;;;;;;;9.86;100.00;101025.91;5117775;28;20031;-36
2023/12/28 07:28:22;;;;;;;12.20;3.38;;;;;;;9.75;100.00;101016.63;5117130;28;20027;-36
2023/12/28 07:30:48;;;;;;;10.10;2.37;;;;;;;9.75;100.00;101023.91;5117679;28;20046;-36
2023/12/28 07:33:13;;;;;;;14.30;3.17;;;;;;;9.82;100.00;101032.78;5117852;28;20047;-36
2023/12/28 07:35:39;;;;;;;18.27;3.73;;;;;;;9.81;100.00;101028.44;5117649;28;20031;-36
2023/12/28 07:38:04;;;;;;;10.82;2.58;;;;;;;9.69;100.00;101016.69;5117192;28;20258;-36
2023/12/28 07:40:30;;;;;;;12.70;2.90;;;;;;;9.74;100.00;101035.75;5117248;27;20020;-36
2023/12/28 07:42:56;;;;;;;7.00;2.63;;;;;;;9.82;100.00;101045.47;5118400;28;20046;-36
2023/12/28 07:45:23;;;;;;;12.20;3.08;;;;;;;9.82;100.00;101053.56;5118238;28;20360;-36
2023/12/28 07:47:50;;;;;;;13.57;2.67;;;;;;;9.80;100.00;101061.88;5117775;28;20053;-36
2023/12/28 07:50:16;;;;;;;8.90;2.05;;;;;;;9.74;100.00;101055.47;5117263;28;20028;-36
2023/12/28 07:52:42;;;;;;;10.07;2.97;;;;;;;9.80;100.00;101075.38;5117340;28;20080;-36
2023/12/28 07:55:08;;;;;;;8.70;3.00;;;;;;;9.79;100.00;101065.63;5117057;28;20035;-36
2023/12/28 07:57:34;;;;;;;7.43;2.58;;;;;;;9.70;100.00;101050.75;5116714;28;20119;-36
2023/12/28 08:00:00;;;;;;;14.82;3.10;;;;;;;9.79;100.00;101061.06;5117116;28;20031;-36
2023/12/28 08:02:25;;;;;;;8.97;2.30;;;;;;;9.80;100.00;101076.19;5117771;28;20024;-36
2023/12/28 08:04:50;;;;;;;13.27;3.10;;;;;;;9.84;100.00;101084.69;5117045;28;20088;-36
2023/12/28 08:07:15;;;;;;;13.37;3.13;;;;;;;9.85;100.00;101072.00;5117082;28;20274;-36
2023/12/28 08:09:41;;;;;;;11.73;2.40;;;;;;;9.75;100.00;101067.94;5117004;28;20107;-36
2023/12/28 08:12:06;;;;;;;10.73;2.43;;;;;;;9.83;100.00;101074.13;5117075;28;20250;-36
2023/12/28 08:14:31;;;;;;;11.57;3.10;;;;;;;9.85;100.00;101069.31;5116994;28;20039;-36
2023/12/28 08:16:57;;;;;;;11.37;2.33;;;;;;;9.85;100.00;101072.84;5117393;28;20019;-36
2023/12/28 08:19:22;;;;;;;14.65;2.85;;;;;;;9.85;100.00;101080.94;5117097;28;20035;-36
2023/12/28 08:21:48;;;;;;;9.27;2.37;;;;;;;9.83;100.00;101069.53;5117028;28;20028;-36
2023/12/28 08:24:13;;;;;;;10.43;3.10;;;;;;;9.85;100.00;101072.00;5116460;28;20312;-36
2023/12/28 08:26:39;;;;;;;10.45;2.90;;;;;;;9.85;100.00;101075.53;5117526;28;20032;-36
2023/12/28 08:29:05;;;;;;;8.30;2.63;;;;;;;9.85;100.00;101042.31;5116052;28;20028;-37
2023/12/28 08:31:30;;;;;;;11.20;2.83;;;;;;;9.85;100.00;101066.63;5117088;28;20034;-36
2023/12/28 08:33:56;;;;;;;13.27;2.73;;;;;;;9.84;100.00;101063.09;5116259;28;20047;-36
2023/12/28 08:36:22;;;;;;;13.35;3.03;;;;;;;9.85;100.00;101072.84;5116407;28;20023;-36
2023/12/28 08:38:47;;;;;;;12.93;3.50;;;;;;;9.86;100.00;101079.06;5116418;28;20027;-36
2023/12/28 08:41:23;;;;;;;13.00;3.70;;;;;;;9.86;100.00;101079.06;5116362;28;20467;-36
2023/12/28 08:43:50;;;;;;;8.38;2.33;;;;;;;9.87;100.00;101086.16;5116231;28;20027;-36
2023/12/28 08:46:16;;;;;;;7.53;2.45;;;;;;;9.87;100.00;101086.16;5116275;28;20028;-36
2023/12/28 08:48:41;;;;;;;11.55;2.75;;;;;;;9.82;100.00;101072.47;5115910;28;20119;-36
2023/12/28 08:51:09;;;;;;;11.30;3.38;;;;;;;9.90;100.00;101089.22;5116467;28;20032;-36
2023/12/28 08:53:34;;;;;;;10.73;2.47;;;;;;;9.94;100.00;101103.94;5115822;28;20038;-36
2023/12/28 08:55:59;;;;;;;17.60;4.40;;;;;;;9.94;100.00;101101.25;5116319;28;20130;-36
2023/12/28 08:58:25;;;;;;;10.03;2.70;;;;;;;9.87;100.00;101102.34;5116287;28;20080;-36
2023/12/28 09:00:50;;;;;;;12.87;2.80;;;;;;;9.85;100.00;101105.25;5116093;28;20115;-36
2023/12/28 09:03:15;;;;;;;10.13;2.97;;;;;;;9.92;100.00;101124.94;5116525;28;20029;-36
2023/12/28 09:05:40;;;;;;;13.03;2.77;;;;;;;9.91;100.00;101125.19;5116789;28;20042;-36
2023/12/28 09:08:06;;;;;;;11.57;3.23;;;;;;;9.82;100.00;101111.13;5116452;28;20024;-36
2023/12/28 09:10:32;;;;;;;8.63;2.70;;;;;;;9.88;100.00;101099.41;5115537;28;20023;-36
2023/12/28 09:12:57;;;;;;;8.70;2.58;;;;;;;9.87;100.00;101111.28;5116065;28;20031;-36
2023/12/28 09:15:22;;;;;;;6.90;2.40;;;;;;;9.88;100.00;101114.81;5115728;28;20375;-36
2023/12/28 09:17:48;;;;;;;11.47;2.73;;;;;;;9.88;100.00;101131.00;5115721;28;20435;-36
2023/12/28 09:20:13;;;;;;;15.50;3.70;;;;;;;9.87;100.00;101127.50;5115625;28;20028;-36
2023/12/28 09:22:39;;;;;;;8.33;2.57;;;;;;;9.91;100.00;101141.38;5115341;28;20102;-36
2023/12/28 09:25:05;;;;;;;9.15;2.90;;;;;;;9.88;100.00;101110.22;5115473;28;20347;-36
2023/12/28 09:27:30;;;;;;;9.35;2.25;;;;;;;9.93;100.00;101117.69;5116061;28;20024;-36
2023/12/28 09:29:55;;;;;;;8.50;2.53;;;;;;;9.89;100.00;101116.47;5115164;28;20160;-36
2023/12/28 09:32:21;;;;;;;12.33;2.33;;;;;;;9.97;100.00;101141.34;5115254;28;20254;-36
2023/12/28 09:34:46;;;;;;;8.37;2.30;;;;;;;9.93;100.00;101123.06;5115398;28;20024;-36
2023/12/28 09:37:11;;;;;;;11.38;2.90;;;;;;;9.98;100.00;101137.56;5115798;28;20376;-36
2023/12/28 09:39:37;;;;;;;14.70;4.03;;;;;;;10.02;100.00;101155.00;5114342;28;20036;-36
2023/12/28 09:42:15;;;;;;;9.90;2.35;;;;;;;9.93;100.00;101128.47;5115468;28;20254;-36
2023/12/28 09:44:43;;;;;;;12.48;2.90;;;;;;;9.98;100.00;101120.53;5114936;27;20037;-36
2023/12/28 09:47:12;;;;;;;11.95;2.72;;;;;;;10.01;100.00;101142.56;5115680;28;20028;-36
2023/12/28 09:49:38;;;;;;;11.02;2.65;;;;;;;10.08;100.00;101153.28;5115006;28;20020;-36
2023/12/28 09:52:05;;;;;;;12.52;3.20;;;;;;;10.10;100.00;101163.88;5115548;28;20031;-36
2023/12/28 09:54:30;;;;;;;10.50;2.85;;;;;;;10.10;100.00;101161.16;5114961;28;20030;-36
2023/12/28 09:56:56;;;;;;;10.40;2.63;;;;;;;10.03;100.00;101162.06;5114750;28;20043;-36
2023/12/28 09:59:22;;;;;;;14.45;2.80;;;;;;;10.03;100.00;101167.47;5114869;28;20024;-36
2023/12/28 10:01:49;;;;;;;10.32;2.45;;;;;;;10.12;100.00;101169.91;5114890;28;20092;-36
2023/12/28 10:04:15;;;;;;;11.15;3.33;;;;;;;10.11;100.00;101179.06;5114470;28;20455;-36
2023/12/28 10:06:41;;;;;;;12.95;3.33;;;;;;;10.10;100.00;101172.81;5115581;28;20032;-36
2023/12/28 10:09:07;;;;;;;13.60;2.97;;;;;;;10.09;100.00;101170.34;5114749;28;20096;-36
2023/12/28 10:11:33;;;;;;;9.45;2.63;;;;;;;10.11;100.00;101168.25;5115437;28;20281;-36
2023/12/28 10:13:59;;;;;;;15.13;3.03;;;;;;;10.10;100.00;101167.41;5114363;28;20562;-36
2023/12/28 10:16:24;;;;;;;11.93;2.42;;;;;;;10.13;100.00;101156.16;5114457;28;20093;-36
2023/12/28 10:18:49;;;;;;;14.03;3.17;;;;;;;10.15;100.00;101170.31;5114854;28;20031;-36
2023/12/28 10:21:15;;;;;;;16.83;3.70;;;;;;;10.12;100.00;101159.91;5114239;28;20157;-36
2023/12/28 10:23:40;;;;;;;12.15;3.58;;;;;;;10.22;100.00;101170.25;5114090;28;20042;-36
2023/12/28 10:26:06;;;;;;;12.93;3.22;;;;;;;10.26;100.00;101174.19;5114445;28;20032;-36
2023/12/28 10:28:39;;;;;;;9.38;2.67;;;;;;;10.23;100.00;101161.06;5114018;28;20016;-36
2023/12/28 10:31:05;;;;;;;13.48;3.35;;;;;;;10.11;100.00;101141.22;5115219;28;20054;-36
2023/12/28 10:33:37;;;;;;;10.90;2.97;;;;;;;10.26;100.00;101157.97;5114318;28;20063;-36
2023/12/28 10:36:07;;;;;;;14.13;2.95;;;;;;;10.17;100.00;101145.75;5114135;28;20467;-36
2023/12/28 10:38:37;;;;;;;11.82;3.22;;;;;;;10.23;100.00;101152.97;5114185;28;20023;-36
2023/12/28 10:41:07;;;;;;;13.38;2.90;;;;;;;10.13;100.00;101125.63;5114763;28;20027;-36
2023/12/28 10:43:48;;;;;;;12.35;2.95;;;;;;;10.25;100.00;101149.03;5113865;28;20080;-36
2023/12/28 10:46:31;;;;;;;11.55;2.80;;;;;;;10.33;100.00;101145.22;5114993;28;20384;-36
2023/12/28 10:49:00;;;;;;;10.93;3.10;;;;;;;10.41;100.00;101157.63;5113786;28;20038;-36
2023/12/28 10:51:29;;;;;;;10.63;2.80;;;;;;;10.44;100.00;101147.22;5114764;28;20053;-36
2023/12/28 10:54:18;;;;;;;11.35;2.67;;;;;;;10.48;100.00;101163.78;5113748;28;20073;-37
2023/12/28 10:56:51;;;;;;;11.60;3.33;;;;;;;10.45;100.00;101148.84;5114884;28;20130;-37
2023/12/28 10:59:41;;;;;;;19.35;3.20;;;;;;;10.48;100.00;101148.38;5113967;28;20038;-37
2023/12/28 11:02:09;;;;;;;10.43;2.50;;;;;;;10.44;100.00;101136.38;5114004;28;20096;-37
2023/12/28 11:04:42;;;;;;;18.25;4.18;;;;;;;10.48;100.00;101136.75;5114209;28;20035;-37
2023/12/28 11:07:09;;;;;;;11.43;3.10;;;;;;;10.56;100.00;101152.69;5113991;28;20031;-37
2023/12/28 11:09:36;;;;;;;10.27;2.72;;;;;;;10.57;100.00;101148.94;5113858;28;20092;-37
2023/12/28 11:12:07;;;;;;;12.20;3.30;;;;;;;10.56;100.00;101150.00;5114641;28;20038;-37
2023/12/28 11:14:34;;;;;;;10.02;3.47;;;;;;;10.41;100.00;101108.97;5114121;28;20092;-37
2023/12/28 11:17:03;;;;;;;11.93;3.63;;;;;;;10.55;100.00;101143.75;5113807;28;20028;-37